Current Weather

Multan Intl

Multan Intl, Pakistan (OPMT)

Report from: Wednesday, September 28, 2022 2:00 PM PKT
Current time: Wednesday, September 28, 2022 2:50 PM PKT

Nearby weather
Weather history
Weather forecast

Present weatherHaze
Temperature36.0°C (96.8°F)
Heat index39.8°C (103.7°F)
Dew point21.0°C (69.8°F)
Winds 6 kts (3.1 m/s, 6.9 mph) West (270°)
Visibility3.1 mi. (5 km)
Altimeter29.65 in.Hg (1004 mB)
Relative humidity42 %
Density altitude3,023 ft. (922 m)
Remarks No significant changes expected in the next two hours
Flight conditions Marginal Visual Meteorological Conditions
Raw dataOPMT 280900Z 27006KT 5000 HZ NSC 36/21 Q1004 NOSIG
An error has occurred. This application may no longer respond until reloaded. Reload 🗙